Castanheiras, Brazil
Current Conditions -  °F | °C
As of 7:00 PM on Thursday 18 Dec 2014 (Local Time) from SLMG Reporting Station
Light Rain Light Rain  
Wind Chill: 73°   Ceiling: 20000
Heat Index: 73°   Visibility: 5mi
Dew Point: 73°   Wind: 7mph
Humidity: 100%   Direction: 180°S
Pressure: 29.8"   Gusts: NA
Location:  11.42°S, 61.94°W
Report Text: SLMG 182300Z 18006KT 8000 -RA SCT015 FEW020CB OVC200 23/23 Q1009
Loading
Personal Weather Stations






























Interactive Weather Map New forecast layout! Learn more

10-Day Weather Forecast

Advertisements
Track Severe Weather on mobile